sensor_id;sensor_type;location;lat;lon;timestamp;P1;durP1;ratioP1;P2;durP2;ratioP2
5521;SDS011;2783;48.730;8.006;2022-08-11T00:00:58;4.60;;;2.28;;
5521;SDS011;2783;48.730;8.006;2022-08-11T00:03:24;3.83;;;2.13;;
5521;SDS011;2783;48.730;8.006;2022-08-11T00:05:52;4.82;;;2.30;;
5521;SDS011;2783;48.730;8.006;2022-08-11T00:08:26;6.25;;;2.72;;
5521;SDS011;2783;48.730;8.006;2022-08-11T00:10:56;4.65;;;2.58;;
5521;SDS011;2783;48.730;8.006;2022-08-11T00:13:36;4.70;;;2.47;;
5521;SDS011;2783;48.730;8.006;2022-08-11T00:16:04;4.15;;;2.47;;
5521;SDS011;2783;48.730;8.006;2022-08-11T00:18:41;4.10;;;2.50;;
5521;SDS011;2783;48.730;8.006;2022-08-11T00:21:08;5.38;;;2.30;;
5521;SDS011;2783;48.730;8.006;2022-08-11T00:23:40;3.15;;;2.15;;
5521;SDS011;2783;48.730;8.006;2022-08-11T00:26:08;4.15;;;2.55;;
5521;SDS011;2783;48.730;8.006;2022-08-11T00:28:34;6.90;;;2.45;;
5521;SDS011;2783;48.730;8.006;2022-08-11T00:31:02;4.78;;;2.90;;
5521;SDS011;2783;48.730;8.006;2022-08-11T00:33:34;4.85;;;2.22;;
5521;SDS011;2783;48.730;8.006;2022-08-11T00:36:03;4.05;;;2.92;;
5521;SDS011;2783;48.730;8.006;2022-08-11T00:38:31;5.70;;;2.42;;
5521;SDS011;2783;48.730;8.006;2022-08-11T00:41:03;4.28;;;2.53;;
5521;SDS011;2783;48.730;8.006;2022-08-11T00:43:48;3.85;;;2.50;;
5521;SDS011;2783;48.730;8.006;2022-08-11T00:46:34;3.90;;;2.70;;
5521;SDS011;2783;48.730;8.006;2022-08-11T00:52:07;5.38;;;2.90;;
5521;SDS011;2783;48.730;8.006;2022-08-11T01:00:11;6.15;;;2.65;;
5521;SDS011;2783;48.730;8.006;2022-08-11T01:11:14;3.30;;;2.45;;
5521;SDS011;2783;48.730;8.006;2022-08-11T01:19:32;6.38;;;2.58;;
5521;SDS011;2783;48.730;8.006;2022-08-11T01:22:34;7.10;;;2.95;;
5521;SDS011;2783;48.730;8.006;2022-08-11T01:50:52;4.45;;;2.75;;
5521;SDS011;2783;48.730;8.006;2022-08-11T01:53:23;4.68;;;2.90;;
5521;SDS011;2783;48.730;8.006;2022-08-11T01:58:36;4.97;;;2.85;;
5521;SDS011;2783;48.730;8.006;2022-08-11T02:10:02;5.15;;;2.90;;
5521;SDS011;2783;48.730;8.006;2022-08-11T02:13:12;5.40;;;3.08;;
5521;SDS011;2783;48.730;8.006;2022-08-11T02:15:43;5.45;;;3.35;;
5521;SDS011;2783;48.730;8.006;2022-08-11T02:18:20;4.82;;;2.70;;
5521;SDS011;2783;48.730;8.006;2022-08-11T02:21:11;4.32;;;2.95;;
5521;SDS011;2783;48.730;8.006;2022-08-11T02:24:03;3.53;;;2.63;;
5521;SDS011;2783;48.730;8.006;2022-08-11T02:26:45;5.60;;;3.00;;
5521;SDS011;2783;48.730;8.006;2022-08-11T02:29:28;5.40;;;3.30;;
5521;SDS011;2783;48.730;8.006;2022-08-11T02:32:16;7.38;;;2.90;;
5521;SDS011;2783;48.730;8.006;2022-08-11T02:35:09;4.68;;;3.10;;
5521;SDS011;2783;48.730;8.006;2022-08-11T02:38:08;10.60;;;3.30;;
5521;SDS011;2783;48.730;8.006;2022-08-11T02:46:49;4.78;;;3.28;;
5521;SDS011;2783;48.730;8.006;2022-08-11T03:00:06;9.35;;;3.08;;
5521;SDS011;2783;48.730;8.006;2022-08-11T03:02:39;5.07;;;3.05;;
5521;SDS011;2783;48.730;8.006;2022-08-11T03:06:03;6.47;;;3.63;;
5521;SDS011;2783;48.730;8.006;2022-08-11T03:14:21;5.60;;;3.03;;
5521;SDS011;2783;48.730;8.006;2022-08-11T03:17:24;9.57;;;3.17;;
5521;SDS011;2783;48.730;8.006;2022-08-11T03:20:22;5.10;;;2.70;;
5521;SDS011;2783;48.730;8.006;2022-08-11T03:22:59;15.43;;;3.58;;
5521;SDS011;2783;48.730;8.006;2022-08-11T03:25:48;4.90;;;3.30;;
5521;SDS011;2783;48.730;8.006;2022-08-11T03:34:05;8.88;;;3.38;;
5521;SDS011;2783;48.730;8.006;2022-08-11T03:59:02;7.13;;;5.47;;
5521;SDS011;2783;48.730;8.006;2022-08-11T04:07:38;4.95;;;2.92;;
5521;SDS011;2783;48.730;8.006;2022-08-11T04:10:38;4.15;;;3.00;;
5521;SDS011;2783;48.730;8.006;2022-08-11T04:17:00;6.00;;;3.03;;
5521;SDS011;2783;48.730;8.006;2022-08-11T04:25:28;6.15;;;2.90;;
5521;SDS011;2783;48.730;8.006;2022-08-11T04:28:10;11.45;;;3.95;;
5521;SDS011;2783;48.730;8.006;2022-08-11T04:35:57;4.90;;;3.92;;
5521;SDS011;2783;48.730;8.006;2022-08-11T04:48:05;11.50;;;3.70;;
5521;SDS011;2783;48.730;8.006;2022-08-11T04:54:39;4.15;;;2.58;;
5521;SDS011;2783;48.730;8.006;2022-08-11T05:00:51;19.00;;;4.13;;
5521;SDS011;2783;48.730;8.006;2022-08-11T05:13:03;25.17;;;4.95;;
5521;SDS011;2783;48.730;8.006;2022-08-11T05:15:53;5.13;;;2.95;;
5521;SDS011;2783;48.730;8.006;2022-08-11T05:18:45;10.13;;;3.00;;
5521;SDS011;2783;48.730;8.006;2022-08-11T05:21:32;5.03;;;2.85;;
5521;SDS011;2783;48.730;8.006;2022-08-11T05:24:22;6.18;;;3.08;;
5521;SDS011;2783;48.730;8.006;2022-08-11T05:27:09;4.18;;;2.42;;
5521;SDS011;2783;48.730;8.006;2022-08-11T05:29:59;13.02;;;3.13;;
5521;SDS011;2783;48.730;8.006;2022-08-11T05:32:47;6.07;;;2.95;;
5521;SDS011;2783;48.730;8.006;2022-08-11T05:35:46;7.55;;;2.92;;
5521;SDS011;2783;48.730;8.006;2022-08-11T05:38:48;4.97;;;2.42;;
5521;SDS011;2783;48.730;8.006;2022-08-11T05:41:31;11.77;;;3.22;;
5521;SDS011;2783;48.730;8.006;2022-08-11T05:44:19;6.80;;;3.47;;
5521;SDS011;2783;48.730;8.006;2022-08-11T05:47:03;8.93;;;2.70;;
5521;SDS011;2783;48.730;8.006;2022-08-11T05:49:48;6.68;;;3.67;;
5521;SDS011;2783;48.730;8.006;2022-08-11T05:52:34;4.60;;;2.50;;
5521;SDS011;2783;48.730;8.006;2022-08-11T05:55:19;6.85;;;2.92;;
5521;SDS011;2783;48.730;8.006;2022-08-11T05:58:06;4.72;;;2.65;;
5521;SDS011;2783;48.730;8.006;2022-08-11T06:00:44;9.45;;;3.30;;
5521;SDS011;2783;48.730;8.006;2022-08-11T06:03:11;6.13;;;2.78;;
5521;SDS011;2783;48.730;8.006;2022-08-11T06:05:49;6.18;;;3.22;;
5521;SDS011;2783;48.730;8.006;2022-08-11T06:08:15;8.85;;;3.00;;
5521;SDS011;2783;48.730;8.006;2022-08-11T06:10:42;11.27;;;3.08;;
5521;SDS011;2783;48.730;8.006;2022-08-11T06:13:09;6.25;;;2.55;;
5521;SDS011;2783;48.730;8.006;2022-08-11T06:15:47;5.18;;;2.42;;
5521;SDS011;2783;48.730;8.006;2022-08-11T06:18:14;5.93;;;2.35;;
5521;SDS011;2783;48.730;8.006;2022-08-11T06:20:51;10.02;;;2.80;;
5521;SDS011;2783;48.730;8.006;2022-08-11T06:23:19;4.85;;;2.75;;
5521;SDS011;2783;48.730;8.006;2022-08-11T06:25:49;8.43;;;2.58;;
5521;SDS011;2783;48.730;8.006;2022-08-11T06:28:16;4.10;;;2.35;;
5521;SDS011;2783;48.730;8.006;2022-08-11T06:30:44;5.35;;;2.78;;
5521;SDS011;2783;48.730;8.006;2022-08-11T06:33:15;5.38;;;2.67;;
5521;SDS011;2783;48.730;8.006;2022-08-11T06:35:50;4.97;;;2.20;;
5521;SDS011;2783;48.730;8.006;2022-08-11T06:41:43;3.90;;;2.30;;
5521;SDS011;2783;48.730;8.006;2022-08-11T06:46:39;5.57;;;2.10;;
5521;SDS011;2783;48.730;8.006;2022-08-11T06:49:11;8.27;;;2.42;;
5521;SDS011;2783;48.730;8.006;2022-08-11T06:52:03;4.10;;;2.25;;
5521;SDS011;2783;48.730;8.006;2022-08-11T06:54:41;4.28;;;2.35;;
5521;SDS011;2783;48.730;8.006;2022-08-11T06:57:12;5.63;;;2.40;;
5521;SDS011;2783;48.730;8.006;2022-08-11T06:59:58;4.70;;;2.80;;
5521;SDS011;2783;48.730;8.006;2022-08-11T07:02:53;5.38;;;2.47;;
5521;SDS011;2783;48.730;8.006;2022-08-11T07:05:37;7.38;;;2.28;;
5521;SDS011;2783;48.730;8.006;2022-08-11T07:14:55;6.55;;;2.35;;
5521;SDS011;2783;48.730;8.006;2022-08-11T07:17:45;4.55;;;1.90;;
5521;SDS011;2783;48.730;8.006;2022-08-11T07:20:35;4.18;;;1.92;;
5521;SDS011;2783;48.730;8.006;2022-08-11T07:23:21;4.57;;;2.00;;
5521;SDS011;2783;48.730;8.006;2022-08-11T07:26:06;5.53;;;1.95;;
5521;SDS011;2783;48.730;8.006;2022-08-11T07:28:51;5.40;;;2.47;;
5521;SDS011;2783;48.730;8.006;2022-08-11T07:31:28;5.30;;;2.22;;
5521;SDS011;2783;48.730;8.006;2022-08-11T07:34:01;5.75;;;2.42;;
5521;SDS011;2783;48.730;8.006;2022-08-11T07:36:28;5.13;;;2.30;;
5521;SDS011;2783;48.730;8.006;2022-08-11T07:38:55;3.85;;;1.90;;
5521;SDS011;2783;48.730;8.006;2022-08-11T07:41:22;5.55;;;1.90;;
5521;SDS011;2783;48.730;8.006;2022-08-11T07:43:49;3.83;;;1.92;;
5521;SDS011;2783;48.730;8.006;2022-08-11T07:46:19;5.90;;;2.03;;
5521;SDS011;2783;48.730;8.006;2022-08-11T07:49:05;3.58;;;1.95;;
5521;SDS011;2783;48.730;8.006;2022-08-11T07:51:52;6.45;;;2.30;;
5521;SDS011;2783;48.730;8.006;2022-08-11T07:54:37;2.42;;;1.63;;
5521;SDS011;2783;48.730;8.006;2022-08-11T07:57:04;5.00;;;1.60;;
5521;SDS011;2783;48.730;8.006;2022-08-11T07:59:55;10.50;;;1.90;;
5521;SDS011;2783;48.730;8.006;2022-08-11T08:02:39;4.00;;;2.13;;
5521;SDS011;2783;48.730;8.006;2022-08-11T08:05:25;4.10;;;1.70;;
5521;SDS011;2783;48.730;8.006;2022-08-11T08:08:10;4.75;;;2.35;;
5521;SDS011;2783;48.730;8.006;2022-08-11T08:10:57;3.58;;;1.70;;
5521;SDS011;2783;48.730;8.006;2022-08-11T08:13:41;4.70;;;2.00;;
5521;SDS011;2783;48.730;8.006;2022-08-11T08:16:26;4.00;;;2.00;;
5521;SDS011;2783;48.730;8.006;2022-08-11T08:19:14;5.55;;;2.28;;
5521;SDS011;2783;48.730;8.006;2022-08-11T08:21:41;6.32;;;1.75;;
5521;SDS011;2783;48.730;8.006;2022-08-11T08:24:08;5.43;;;1.95;;
5521;SDS011;2783;48.730;8.006;2022-08-11T08:26:34;5.50;;;1.92;;
5521;SDS011;2783;48.730;8.006;2022-08-11T08:29:19;4.72;;;2.10;;
5521;SDS011;2783;48.730;8.006;2022-08-11T08:32:05;5.25;;;2.00;;
5521;SDS011;2783;48.730;8.006;2022-08-11T08:34:33;4.63;;;1.90;;
5521;SDS011;2783;48.730;8.006;2022-08-11T08:37:00;4.57;;;1.98;;
5521;SDS011;2783;48.730;8.006;2022-08-11T08:39:26;3.42;;;1.65;;
5521;SDS011;2783;48.730;8.006;2022-08-11T08:41:54;6.25;;;1.45;;
5521;SDS011;2783;48.730;8.006;2022-08-11T08:44:21;4.88;;;1.75;;
5521;SDS011;2783;48.730;8.006;2022-08-11T08:46:49;2.78;;;1.42;;
5521;SDS011;2783;48.730;8.006;2022-08-11T08:49:21;6.22;;;2.00;;
5521;SDS011;2783;48.730;8.006;2022-08-11T08:51:51;3.28;;;1.60;;
5521;SDS011;2783;48.730;8.006;2022-08-11T08:54:19;3.45;;;1.58;;
5521;SDS011;2783;48.730;8.006;2022-08-11T08:56:51;4.45;;;1.77;;
5521;SDS011;2783;48.730;8.006;2022-08-11T08:59:20;3.25;;;1.88;;
5521;SDS011;2783;48.730;8.006;2022-08-11T09:01:56;4.82;;;1.50;;
5521;SDS011;2783;48.730;8.006;2022-08-11T09:04:24;3.03;;;1.60;;
5521;SDS011;2783;48.730;8.006;2022-08-11T09:06:51;4.20;;;1.52;;
5521;SDS011;2783;48.730;8.006;2022-08-11T09:09:18;3.55;;;1.67;;
5521;SDS011;2783;48.730;8.006;2022-08-11T09:11:46;4.55;;;1.58;;
5521;SDS011;2783;48.730;8.006;2022-08-11T09:14:18;3.65;;;1.50;;
5521;SDS011;2783;48.730;8.006;2022-08-11T09:17:13;3.28;;;1.90;;
5521;SDS011;2783;48.730;8.006;2022-08-11T09:19:41;3.63;;;1.48;;
5521;SDS011;2783;48.730;8.006;2022-08-11T09:22:07;3.95;;;2.00;;
5521;SDS011;2783;48.730;8.006;2022-08-11T09:24:51;3.03;;;1.40;;
5521;SDS011;2783;48.730;8.006;2022-08-11T09:27:36;2.00;;;1.20;;
5521;SDS011;2783;48.730;8.006;2022-08-11T09:30:04;2.30;;;1.20;;
5521;SDS011;2783;48.730;8.006;2022-08-11T09:32:31;1.55;;;0.95;;
5521;SDS011;2783;48.730;8.006;2022-08-11T09:34:58;4.07;;;1.20;;
5521;SDS011;2783;48.730;8.006;2022-08-11T09:37:26;2.08;;;1.10;;
5521;SDS011;2783;48.730;8.006;2022-08-11T09:40:12;2.13;;;1.13;;
5521;SDS011;2783;48.730;8.006;2022-08-11T09:42:57;1.63;;;1.00;;
5521;SDS011;2783;48.730;8.006;2022-08-11T09:45:43;2.88;;;1.30;;
5521;SDS011;2783;48.730;8.006;2022-08-11T09:50:43;3.95;;;1.27;;
5521;SDS011;2783;48.730;8.006;2022-08-11T09:53:14;2.88;;;1.25;;
5521;SDS011;2783;48.730;8.006;2022-08-11T09:55:40;1.40;;;0.95;;
5521;SDS011;2783;48.730;8.006;2022-08-11T09:58:07;3.33;;;1.20;;
5521;SDS011;2783;48.730;8.006;2022-08-11T10:00:40;3.13;;;1.23;;
5521;SDS011;2783;48.730;8.006;2022-08-11T10:05:59;2.58;;;1.40;;
5521;SDS011;2783;48.730;8.006;2022-08-11T10:08:46;2.60;;;1.27;;
5521;SDS011;2783;48.730;8.006;2022-08-11T10:11:18;2.38;;;1.30;;
5521;SDS011;2783;48.730;8.006;2022-08-11T10:13:47;2.88;;;1.40;;
5521;SDS011;2783;48.730;8.006;2022-08-11T10:16:36;2.35;;;1.10;;
5521;SDS011;2783;48.730;8.006;2022-08-11T10:19:05;2.70;;;1.40;;
5521;SDS011;2783;48.730;8.006;2022-08-11T10:21:37;2.25;;;1.20;;
5521;SDS011;2783;48.730;8.006;2022-08-11T10:24:06;2.35;;;1.20;;
5521;SDS011;2783;48.730;8.006;2022-08-11T10:26:52;6.97;;;1.30;;
5521;SDS011;2783;48.730;8.006;2022-08-11T10:32:03;2.83;;;1.30;;
5521;SDS011;2783;48.730;8.006;2022-08-11T10:34:48;1.80;;;1.23;;
5521;SDS011;2783;48.730;8.006;2022-08-11T10:37:14;2.25;;;1.02;;
5521;SDS011;2783;48.730;8.006;2022-08-11T10:39:41;1.65;;;1.02;;
5521;SDS011;2783;48.730;8.006;2022-08-11T10:42:09;3.28;;;1.50;;
5521;SDS011;2783;48.730;8.006;2022-08-11T10:44:57;2.10;;;1.10;;
5521;SDS011;2783;48.730;8.006;2022-08-11T10:47:25;18.25;;;8.35;;
5521;SDS011;2783;48.730;8.006;2022-08-11T10:50:03;3.53;;;1.98;;
5521;SDS011;2783;48.730;8.006;2022-08-11T10:52:48;5.45;;;3.08;;
5521;SDS011;2783;48.730;8.006;2022-08-11T10:55:36;2.83;;;1.52;;
5521;SDS011;2783;48.730;8.006;2022-08-11T10:58:21;5.32;;;2.47;;
5521;SDS011;2783;48.730;8.006;2022-08-11T11:01:07;5.70;;;2.55;;
5521;SDS011;2783;48.730;8.006;2022-08-11T11:03:34;9.00;;;4.25;;
5521;SDS011;2783;48.730;8.006;2022-08-11T11:06:37;9.88;;;5.05;;
5521;SDS011;2783;48.730;8.006;2022-08-11T11:09:18;12.73;;;6.00;;
5521;SDS011;2783;48.730;8.006;2022-08-11T11:12:22;3.80;;;1.70;;
5521;SDS011;2783;48.730;8.006;2022-08-11T11:15:31;8.40;;;4.15;;
5521;SDS011;2783;48.730;8.006;2022-08-11T11:18:20;3.83;;;1.52;;
5521;SDS011;2783;48.730;8.006;2022-08-11T11:20:57;4.03;;;1.95;;
5521;SDS011;2783;48.730;8.006;2022-08-11T11:26:11;4.63;;;1.80;;
5521;SDS011;2783;48.730;8.006;2022-08-11T11:28:56;5.78;;;3.20;;
5521;SDS011;2783;48.730;8.006;2022-08-11T11:31:42;4.53;;;1.52;;
5521;SDS011;2783;48.730;8.006;2022-08-11T11:36:54;2.50;;;1.70;;
5521;SDS011;2783;48.730;8.006;2022-08-11T11:39:25;2.50;;;0.93;;
5521;SDS011;2783;48.730;8.006;2022-08-11T11:41:56;3.22;;;1.30;;
5521;SDS011;2783;48.730;8.006;2022-08-11T11:44:24;3.78;;;1.40;;
5521;SDS011;2783;48.730;8.006;2022-08-11T11:46:51;2.30;;;1.40;;
5521;SDS011;2783;48.730;8.006;2022-08-11T11:49:18;2.78;;;1.30;;
5521;SDS011;2783;48.730;8.006;2022-08-11T11:51:49;6.50;;;1.50;;
5521;SDS011;2783;48.730;8.006;2022-08-11T11:54:25;3.70;;;1.20;;
5521;SDS011;2783;48.730;8.006;2022-08-11T11:56:52;2.45;;;1.55;;
5521;SDS011;2783;48.730;8.006;2022-08-11T11:59:19;2.60;;;1.30;;
5521;SDS011;2783;48.730;8.006;2022-08-11T12:02:05;3.75;;;1.35;;
5521;SDS011;2783;48.730;8.006;2022-08-11T12:04:33;2.95;;;1.40;;
5521;SDS011;2783;48.730;8.006;2022-08-11T12:07:01;3.55;;;1.40;;
5521;SDS011;2783;48.730;8.006;2022-08-11T12:09:45;4.00;;;1.20;;
5521;SDS011;2783;48.730;8.006;2022-08-11T12:12:12;2.72;;;1.10;;
5521;SDS011;2783;48.730;8.006;2022-08-11T12:14:56;2.38;;;1.00;;
5521;SDS011;2783;48.730;8.006;2022-08-11T12:17:22;2.53;;;1.30;;
5521;SDS011;2783;48.730;8.006;2022-08-11T12:19:49;2.33;;;0.93;;
5521;SDS011;2783;48.730;8.006;2022-08-11T12:22:15;2.53;;;1.20;;
5521;SDS011;2783;48.730;8.006;2022-08-11T12:24:59;3.05;;;1.25;;
5521;SDS011;2783;48.730;8.006;2022-08-11T12:27:45;2.78;;;1.20;;
5521;SDS011;2783;48.730;8.006;2022-08-11T12:30:11;2.15;;;1.10;;
5521;SDS011;2783;48.730;8.006;2022-08-11T12:32:37;4.15;;;1.40;;
5521;SDS011;2783;48.730;8.006;2022-08-11T12:35:04;1.88;;;1.20;;
5521;SDS011;2783;48.730;8.006;2022-08-11T12:37:41;4.45;;;1.27;;
5521;SDS011;2783;48.730;8.006;2022-08-11T12:40:12;4.43;;;1.20;;
5521;SDS011;2783;48.730;8.006;2022-08-11T12:42:58;3.13;;;1.27;;
5521;SDS011;2783;48.730;8.006;2022-08-11T12:45:45;2.25;;;1.20;;
5521;SDS011;2783;48.730;8.006;2022-08-11T12:48:14;1.80;;;1.10;;
5521;SDS011;2783;48.730;8.006;2022-08-11T12:51:08;2.35;;;1.20;;
5521;SDS011;2783;48.730;8.006;2022-08-11T12:54:01;3.05;;;1.30;;
5521;SDS011;2783;48.730;8.006;2022-08-11T12:56:38;5.85;;;1.20;;
5521;SDS011;2783;48.730;8.006;2022-08-11T12:59:26;2.80;;;1.10;;
5521;SDS011;2783;48.730;8.006;2022-08-11T13:02:21;2.78;;;1.30;;
5521;SDS011;2783;48.730;8.006;2022-08-11T13:05:07;2.55;;;1.10;;
5521;SDS011;2783;48.730;8.006;2022-08-11T13:07:37;2.28;;;1.10;;
5521;SDS011;2783;48.730;8.006;2022-08-11T13:10:06;2.55;;;1.10;;
5521;SDS011;2783;48.730;8.006;2022-08-11T13:12:33;2.13;;;1.08;;
5521;SDS011;2783;48.730;8.006;2022-08-11T13:15:16;2.45;;;1.10;;
5521;SDS011;2783;48.730;8.006;2022-08-11T13:17:43;3.35;;;1.08;;
5521;SDS011;2783;48.730;8.006;2022-08-11T13:20:12;2.58;;;1.25;;
5521;SDS011;2783;48.730;8.006;2022-08-11T13:22:41;4.10;;;1.50;;
5521;SDS011;2783;48.730;8.006;2022-08-11T13:25:09;2.55;;;1.33;;
5521;SDS011;2783;48.730;8.006;2022-08-11T13:27:37;2.25;;;1.20;;
5521;SDS011;2783;48.730;8.006;2022-08-11T13:30:03;3.78;;;1.20;;
5521;SDS011;2783;48.730;8.006;2022-08-11T13:32:48;2.08;;;1.10;;
5521;SDS011;2783;48.730;8.006;2022-08-11T13:35:15;1.85;;;0.95;;
5521;SDS011;2783;48.730;8.006;2022-08-11T13:37:43;4.15;;;1.23;;
5521;SDS011;2783;48.730;8.006;2022-08-11T13:40:11;2.85;;;1.30;;
5521;SDS011;2783;48.730;8.006;2022-08-11T13:42:38;3.03;;;1.40;;
5521;SDS011;2783;48.730;8.006;2022-08-11T13:45:05;2.58;;;1.52;;
5521;SDS011;2783;48.730;8.006;2022-08-11T13:47:32;3.65;;;1.05;;
5521;SDS011;2783;48.730;8.006;2022-08-11T13:49:59;2.10;;;1.15;;
5521;SDS011;2783;48.730;8.006;2022-08-11T13:52:25;2.33;;;1.27;;
5521;SDS011;2783;48.730;8.006;2022-08-11T13:54:54;2.63;;;1.00;;
5521;SDS011;2783;48.730;8.006;2022-08-11T13:57:21;1.73;;;1.02;;
5521;SDS011;2783;48.730;8.006;2022-08-11T13:59:51;3.20;;;1.30;;
5521;SDS011;2783;48.730;8.006;2022-08-11T14:02:20;3.05;;;1.23;;
5521;SDS011;2783;48.730;8.006;2022-08-11T14:04:55;2.30;;;1.10;;
5521;SDS011;2783;48.730;8.006;2022-08-11T14:07:33;3.75;;;1.30;;
5521;SDS011;2783;48.730;8.006;2022-08-11T14:10:04;3.38;;;0.95;;
5521;SDS011;2783;48.730;8.006;2022-08-11T14:12:33;2.97;;;1.55;;
5521;SDS011;2783;48.730;8.006;2022-08-11T14:15:19;4.95;;;1.20;;
5521;SDS011;2783;48.730;8.006;2022-08-11T14:17:51;4.55;;;1.40;;
5521;SDS011;2783;48.730;8.006;2022-08-11T14:20:20;2.70;;;1.02;;
5521;SDS011;2783;48.730;8.006;2022-08-11T14:22:46;4.93;;;1.63;;
5521;SDS011;2783;48.730;8.006;2022-08-11T14:25:13;4.18;;;1.30;;
5521;SDS011;2783;48.730;8.006;2022-08-11T14:27:40;3.67;;;1.20;;
5521;SDS011;2783;48.730;8.006;2022-08-11T14:30:08;3.78;;;1.35;;
5521;SDS011;2783;48.730;8.006;2022-08-11T14:32:54;2.58;;;1.38;;
5521;SDS011;2783;48.730;8.006;2022-08-11T14:35:21;1.52;;;1.02;;
5521;SDS011;2783;48.730;8.006;2022-08-11T14:37:47;3.17;;;1.05;;
5521;SDS011;2783;48.730;8.006;2022-08-11T14:40:13;3.03;;;1.40;;
5521;SDS011;2783;48.730;8.006;2022-08-11T14:42:58;2.15;;;1.10;;
5521;SDS011;2783;48.730;8.006;2022-08-11T14:45:43;4.13;;;1.77;;
5521;SDS011;2783;48.730;8.006;2022-08-11T14:48:28;3.92;;;1.35;;
5521;SDS011;2783;48.730;8.006;2022-08-11T14:50:54;4.68;;;1.30;;
5521;SDS011;2783;48.730;8.006;2022-08-11T14:53:20;4.50;;;1.33;;
5521;SDS011;2783;48.730;8.006;2022-08-11T14:55:47;2.25;;;1.42;;
5521;SDS011;2783;48.730;8.006;2022-08-11T14:58:31;2.38;;;1.30;;
5521;SDS011;2783;48.730;8.006;2022-08-11T15:00:59;2.20;;;1.10;;
5521;SDS011;2783;48.730;8.006;2022-08-11T15:03:26;2.60;;;1.30;;
5521;SDS011;2783;48.730;8.006;2022-08-11T15:05:55;2.53;;;1.17;;
5521;SDS011;2783;48.730;8.006;2022-08-11T15:08:34;2.67;;;1.25;;
5521;SDS011;2783;48.730;8.006;2022-08-11T15:11:24;2.85;;;1.20;;
5521;SDS011;2783;48.730;8.006;2022-08-11T15:14:11;3.78;;;1.20;;
5521;SDS011;2783;48.730;8.006;2022-08-11T15:16:40;2.42;;;1.15;;
5521;SDS011;2783;48.730;8.006;2022-08-11T15:19:26;4.20;;;1.60;;
5521;SDS011;2783;48.730;8.006;2022-08-11T15:21:53;3.80;;;1.52;;
5521;SDS011;2783;48.730;8.006;2022-08-11T15:24:37;6.22;;;1.50;;
5521;SDS011;2783;48.730;8.006;2022-08-11T15:27:03;3.55;;;1.60;;
5521;SDS011;2783;48.730;8.006;2022-08-11T15:29:51;4.43;;;1.15;;
5521;SDS011;2783;48.730;8.006;2022-08-11T15:32:37;3.70;;;1.30;;
5521;SDS011;2783;48.730;8.006;2022-08-11T15:35:23;4.90;;;1.30;;
5521;SDS011;2783;48.730;8.006;2022-08-11T15:38:10;3.95;;;2.17;;
5521;SDS011;2783;48.730;8.006;2022-08-11T15:40:38;1.92;;;1.10;;
5521;SDS011;2783;48.730;8.006;2022-08-11T15:43:58;1.75;;;1.10;;
5521;SDS011;2783;48.730;8.006;2022-08-11T15:46:43;3.05;;;1.63;;
5521;SDS011;2783;48.730;8.006;2022-08-11T15:51:45;2.72;;;1.30;;
5521;SDS011;2783;48.730;8.006;2022-08-11T15:54:18;1.95;;;1.30;;
5521;SDS011;2783;48.730;8.006;2022-08-11T15:56:49;3.58;;;1.95;;
5521;SDS011;2783;48.730;8.006;2022-08-11T15:59:17;1.80;;;1.15;;
5521;SDS011;2783;48.730;8.006;2022-08-11T16:02:03;1.67;;;0.95;;
5521;SDS011;2783;48.730;8.006;2022-08-11T16:04:49;3.22;;;1.15;;
5521;SDS011;2783;48.730;8.006;2022-08-11T16:07:16;3.50;;;1.60;;
5521;SDS011;2783;48.730;8.006;2022-08-11T16:09:52;3.45;;;1.17;;
5521;SDS011;2783;48.730;8.006;2022-08-11T16:12:22;1.65;;;0.98;;
5521;SDS011;2783;48.730;8.006;2022-08-11T16:14:53;7.78;;;1.58;;
5521;SDS011;2783;48.730;8.006;2022-08-11T16:17:52;4.47;;;1.05;;
5521;SDS011;2783;48.730;8.006;2022-08-11T16:20:23;3.80;;;1.20;;
5521;SDS011;2783;48.730;8.006;2022-08-11T16:22:53;2.42;;;1.17;;
5521;SDS011;2783;48.730;8.006;2022-08-11T16:25:23;2.30;;;1.30;;
5521;SDS011;2783;48.730;8.006;2022-08-11T16:27:57;3.08;;;1.10;;
5521;SDS011;2783;48.730;8.006;2022-08-11T16:30:32;6.07;;;1.45;;
5521;SDS011;2783;48.730;8.006;2022-08-11T16:33:00;3.42;;;1.30;;
5521;SDS011;2783;48.730;8.006;2022-08-11T16:35:29;2.38;;;1.20;;
5521;SDS011;2783;48.730;8.006;2022-08-11T16:38:16;1.80;;;1.00;;
5521;SDS011;2783;48.730;8.006;2022-08-11T16:41:01;4.15;;;1.42;;
5521;SDS011;2783;48.730;8.006;2022-08-11T16:43:30;4.07;;;1.10;;
5521;SDS011;2783;48.730;8.006;2022-08-11T16:46:17;4.88;;;2.00;;
5521;SDS011;2783;48.730;8.006;2022-08-11T16:49:07;1.90;;;1.40;;
5521;SDS011;2783;48.730;8.006;2022-08-11T16:51:37;3.25;;;1.02;;
5521;SDS011;2783;48.730;8.006;2022-08-11T16:54:03;4.53;;;1.13;;
5521;SDS011;2783;48.730;8.006;2022-08-11T16:56:31;2.80;;;1.17;;
5521;SDS011;2783;48.730;8.006;2022-08-11T16:59:01;1.92;;;1.08;;
5521;SDS011;2783;48.730;8.006;2022-08-11T17:01:40;3.47;;;1.10;;
5521;SDS011;2783;48.730;8.006;2022-08-11T17:04:08;1.52;;;1.08;;
5521;SDS011;2783;48.730;8.006;2022-08-11T17:07:05;1.63;;;0.95;;
5521;SDS011;2783;48.730;8.006;2022-08-11T17:10:02;2.83;;;1.23;;
5521;SDS011;2783;48.730;8.006;2022-08-11T17:12:49;2.15;;;0.90;;
5521;SDS011;2783;48.730;8.006;2022-08-11T17:15:34;2.45;;;1.30;;
5521;SDS011;2783;48.730;8.006;2022-08-11T17:18:21;1.52;;;1.02;;
5521;SDS011;2783;48.730;8.006;2022-08-11T17:21:04;2.28;;;1.02;;
5521;SDS011;2783;48.730;8.006;2022-08-11T17:23:30;3.10;;;1.10;;
5521;SDS011;2783;48.730;8.006;2022-08-11T17:26:13;3.08;;;1.25;;
5521;SDS011;2783;48.730;8.006;2022-08-11T17:30:06;3.05;;;1.85;;
5521;SDS011;2783;48.730;8.006;2022-08-11T17:32:10;2.53;;;1.10;;
5521;SDS011;2783;48.730;8.006;2022-08-11T17:34:58;3.28;;;1.30;;
5521;SDS011;2783;48.730;8.006;2022-08-11T17:37:45;3.95;;;1.42;;
5521;SDS011;2783;48.730;8.006;2022-08-11T17:40:13;2.55;;;1.10;;
5521;SDS011;2783;48.730;8.006;2022-08-11T17:42:42;3.85;;;1.13;;
5521;SDS011;2783;48.730;8.006;2022-08-11T17:45:28;3.08;;;1.10;;
5521;SDS011;2783;48.730;8.006;2022-08-11T17:48:12;1.73;;;1.00;;
5521;SDS011;2783;48.730;8.006;2022-08-11T17:50:53;1.55;;;1.00;;
5521;SDS011;2783;48.730;8.006;2022-08-11T17:53:19;3.47;;;1.33;;
5521;SDS011;2783;48.730;8.006;2022-08-11T17:56:04;2.83;;;1.23;;
5521;SDS011;2783;48.730;8.006;2022-08-11T17:58:58;2.30;;;1.13;;
5521;SDS011;2783;48.730;8.006;2022-08-11T18:01:43;4.38;;;1.30;;
5521;SDS011;2783;48.730;8.006;2022-08-11T18:04:11;4.40;;;1.15;;
5521;SDS011;2783;48.730;8.006;2022-08-11T18:06:39;3.95;;;1.27;;
5521;SDS011;2783;48.730;8.006;2022-08-11T18:09:10;10.45;;;1.20;;
5521;SDS011;2783;48.730;8.006;2022-08-11T18:11:58;3.30;;;1.17;;
5521;SDS011;2783;48.730;8.006;2022-08-11T18:14:44;2.53;;;1.27;;
5521;SDS011;2783;48.730;8.006;2022-08-11T18:17:31;3.92;;;1.50;;
5521;SDS011;2783;48.730;8.006;2022-08-11T18:20:17;7.07;;;1.40;;
5521;SDS011;2783;48.730;8.006;2022-08-11T18:23:04;3.65;;;1.20;;
5521;SDS011;2783;48.730;8.006;2022-08-11T18:25:51;2.95;;;1.20;;
5521;SDS011;2783;48.730;8.006;2022-08-11T18:28:44;6.95;;;1.45;;
5521;SDS011;2783;48.730;8.006;2022-08-11T18:31:34;4.75;;;1.33;;
5521;SDS011;2783;48.730;8.006;2022-08-11T18:34:27;3.05;;;1.35;;
5521;SDS011;2783;48.730;8.006;2022-08-11T18:37:15;4.28;;;1.33;;
5521;SDS011;2783;48.730;8.006;2022-08-11T18:40:09;3.30;;;1.58;;
5521;SDS011;2783;48.730;8.006;2022-08-11T18:42:59;7.57;;;2.17;;
5521;SDS011;2783;48.730;8.006;2022-08-11T18:45:48;6.75;;;1.88;;
5521;SDS011;2783;48.730;8.006;2022-08-11T18:48:38;19.52;;;2.90;;
5521;SDS011;2783;48.730;8.006;2022-08-11T18:51:29;3.22;;;1.30;;
5521;SDS011;2783;48.730;8.006;2022-08-11T18:54:13;2.92;;;1.13;;
5521;SDS011;2783;48.730;8.006;2022-08-11T18:57:01;2.58;;;1.30;;
5521;SDS011;2783;48.730;8.006;2022-08-11T18:59:49;9.70;;;1.48;;
5521;SDS011;2783;48.730;8.006;2022-08-11T19:02:36;7.28;;;1.38;;
5521;SDS011;2783;48.730;8.006;2022-08-11T19:05:22;28.83;;;4.22;;
5521;SDS011;2783;48.730;8.006;2022-08-11T19:08:08;4.18;;;1.40;;
5521;SDS011;2783;48.730;8.006;2022-08-11T19:10:53;11.88;;;1.88;;
5521;SDS011;2783;48.730;8.006;2022-08-11T19:13:39;5.70;;;1.40;;
5521;SDS011;2783;48.730;8.006;2022-08-11T19:16:25;6.05;;;1.40;;
5521;SDS011;2783;48.730;8.006;2022-08-11T19:19:11;7.18;;;1.65;;
5521;SDS011;2783;48.730;8.006;2022-08-11T19:21:57;5.97;;;1.40;;
5521;SDS011;2783;48.730;8.006;2022-08-11T19:24:44;8.02;;;1.60;;
5521;SDS011;2783;48.730;8.006;2022-08-11T19:27:30;3.50;;;1.42;;